sensor_id;sensor_type;location;lat;lon;timestamp;P1;durP1;ratioP1;P2;durP2;ratioP2
48805;SDS011;34625;47.176;27.548;2022-10-13T00:00:44;27.77;;;12.75;;
48805;SDS011;34625;47.176;27.548;2022-10-13T00:03:11;19.02;;;11.10;;
48805;SDS011;34625;47.176;27.548;2022-10-13T00:05:41;21.80;;;11.82;;
48805;SDS011;34625;47.176;27.548;2022-10-13T00:08:09;19.77;;;10.25;;
48805;SDS011;34625;47.176;27.548;2022-10-13T00:10:41;17.40;;;11.65;;
48805;SDS011;34625;47.176;27.548;2022-10-13T00:13:10;21.30;;;11.45;;
48805;SDS011;34625;47.176;27.548;2022-10-13T00:15:37;20.77;;;13.40;;
48805;SDS011;34625;47.176;27.548;2022-10-13T00:18:07;20.35;;;12.23;;
48805;SDS011;34625;47.176;27.548;2022-10-13T00:20:34;21.60;;;11.95;;
48805;SDS011;34625;47.176;27.548;2022-10-13T00:23:00;21.83;;;10.20;;
48805;SDS011;34625;47.176;27.548;2022-10-13T00:25:26;16.48;;;11.10;;
48805;SDS011;34625;47.176;27.548;2022-10-13T00:27:52;17.75;;;10.70;;
48805;SDS011;34625;47.176;27.548;2022-10-13T00:30:19;17.80;;;9.70;;
48805;SDS011;34625;47.176;27.548;2022-10-13T00:32:45;18.25;;;10.48;;
48805;SDS011;34625;47.176;27.548;2022-10-13T00:35:11;20.80;;;10.13;;
48805;SDS011;34625;47.176;27.548;2022-10-13T00:37:37;18.45;;;9.48;;
48805;SDS011;34625;47.176;27.548;2022-10-13T00:40:03;16.50;;;10.02;;
48805;SDS011;34625;47.176;27.548;2022-10-13T00:42:29;17.75;;;9.65;;
48805;SDS011;34625;47.176;27.548;2022-10-13T00:47:56;17.00;;;9.05;;
48805;SDS011;34625;47.176;27.548;2022-10-13T00:50:31;13.32;;;8.45;;
48805;SDS011;34625;47.176;27.548;2022-10-13T00:53:03;15.38;;;8.18;;
48805;SDS011;34625;47.176;27.548;2022-10-13T00:55:31;14.95;;;8.07;;
48805;SDS011;34625;47.176;27.548;2022-10-13T00:58:00;13.95;;;8.30;;
48805;SDS011;34625;47.176;27.548;2022-10-13T01:00:29;10.68;;;7.40;;
48805;SDS011;34625;47.176;27.548;2022-10-13T01:02:55;9.82;;;6.78;;
48805;SDS011;34625;47.176;27.548;2022-10-13T01:05:22;11.95;;;7.68;;
48805;SDS011;34625;47.176;27.548;2022-10-13T01:07:54;10.10;;;6.70;;
48805;SDS011;34625;47.176;27.548;2022-10-13T01:15:49;10.07;;;6.80;;
48805;SDS011;34625;47.176;27.548;2022-10-13T01:18:29;11.35;;;7.80;;
48805;SDS011;34625;47.176;27.548;2022-10-13T01:32:16;12.45;;;8.00;;
48805;SDS011;34625;47.176;27.548;2022-10-13T01:37:33;12.32;;;7.40;;
48805;SDS011;34625;47.176;27.548;2022-10-13T01:43:00;15.50;;;8.10;;
48805;SDS011;34625;47.176;27.548;2022-10-13T01:45:34;12.02;;;7.97;;
48805;SDS011;34625;47.176;27.548;2022-10-13T01:48:23;10.52;;;8.02;;
48805;SDS011;34625;47.176;27.548;2022-10-13T01:50:51;10.48;;;7.28;;
48805;SDS011;34625;47.176;27.548;2022-10-13T01:53:18;9.82;;;7.10;;
48805;SDS011;34625;47.176;27.548;2022-10-13T01:55:56;15.88;;;7.70;;
48805;SDS011;34625;47.176;27.548;2022-10-13T01:58:24;12.48;;;7.30;;
48805;SDS011;34625;47.176;27.548;2022-10-13T02:03:33;15.35;;;7.20;;
48805;SDS011;34625;47.176;27.548;2022-10-13T02:06:43;12.07;;;7.35;;
48805;SDS011;34625;47.176;27.548;2022-10-13T02:11:48;10.90;;;6.93;;
48805;SDS011;34625;47.176;27.548;2022-10-13T02:14:21;9.45;;;7.40;;
48805;SDS011;34625;47.176;27.548;2022-10-13T02:16:50;11.93;;;8.30;;
48805;SDS011;34625;47.176;27.548;2022-10-13T02:19:19;11.73;;;8.30;;
48805;SDS011;34625;47.176;27.548;2022-10-13T02:21:46;10.23;;;7.80;;
48805;SDS011;34625;47.176;27.548;2022-10-13T02:24:13;11.55;;;7.15;;
48805;SDS011;34625;47.176;27.548;2022-10-13T02:26:40;12.15;;;7.38;;
48805;SDS011;34625;47.176;27.548;2022-10-13T02:29:10;13.18;;;8.02;;
48805;SDS011;34625;47.176;27.548;2022-10-13T02:31:39;10.63;;;7.20;;
48805;SDS011;34625;47.176;27.548;2022-10-13T02:34:05;11.77;;;6.80;;
48805;SDS011;34625;47.176;27.548;2022-10-13T02:36:31;9.35;;;6.00;;
48805;SDS011;34625;47.176;27.548;2022-10-13T02:38:58;8.50;;;5.78;;
48805;SDS011;34625;47.176;27.548;2022-10-13T02:41:24;8.48;;;6.03;;
48805;SDS011;34625;47.176;27.548;2022-10-13T02:43:51;11.60;;;5.78;;
48805;SDS011;34625;47.176;27.548;2022-10-13T02:46:17;10.77;;;7.07;;
48805;SDS011;34625;47.176;27.548;2022-10-13T02:48:43;9.88;;;5.95;;
48805;SDS011;34625;47.176;27.548;2022-10-13T02:51:09;8.95;;;5.50;;
48805;SDS011;34625;47.176;27.548;2022-10-13T02:53:35;10.20;;;5.57;;
48805;SDS011;34625;47.176;27.548;2022-10-13T02:56:01;8.00;;;5.70;;
48805;SDS011;34625;47.176;27.548;2022-10-13T02:58:30;9.25;;;6.22;;
48805;SDS011;34625;47.176;27.548;2022-10-13T03:01:07;9.18;;;6.22;;
48805;SDS011;34625;47.176;27.548;2022-10-13T03:03:34;7.38;;;5.35;;
48805;SDS011;34625;47.176;27.548;2022-10-13T03:06:00;9.98;;;6.38;;
48805;SDS011;34625;47.176;27.548;2022-10-13T03:08:27;9.75;;;5.85;;
48805;SDS011;34625;47.176;27.548;2022-10-13T03:10:53;10.73;;;6.22;;
48805;SDS011;34625;47.176;27.548;2022-10-13T03:13:19;10.52;;;6.75;;
48805;SDS011;34625;47.176;27.548;2022-10-13T03:15:45;8.07;;;5.78;;
48805;SDS011;34625;47.176;27.548;2022-10-13T03:18:12;9.68;;;5.90;;
48805;SDS011;34625;47.176;27.548;2022-10-13T03:20:38;7.97;;;6.28;;
48805;SDS011;34625;47.176;27.548;2022-10-13T03:23:04;7.30;;;5.50;;
48805;SDS011;34625;47.176;27.548;2022-10-13T03:25:31;7.93;;;5.60;;
48805;SDS011;34625;47.176;27.548;2022-10-13T03:27:58;10.57;;;5.65;;
48805;SDS011;34625;47.176;27.548;2022-10-13T03:30:24;12.05;;;5.95;;
48805;SDS011;34625;47.176;27.548;2022-10-13T03:32:50;11.20;;;6.05;;
48805;SDS011;34625;47.176;27.548;2022-10-13T03:35:17;7.88;;;5.75;;
48805;SDS011;34625;47.176;27.548;2022-10-13T03:37:43;9.73;;;5.65;;
48805;SDS011;34625;47.176;27.548;2022-10-13T03:40:09;8.57;;;6.65;;
48805;SDS011;34625;47.176;27.548;2022-10-13T03:42:36;10.88;;;6.22;;
48805;SDS011;34625;47.176;27.548;2022-10-13T03:45:03;9.75;;;7.00;;
48805;SDS011;34625;47.176;27.548;2022-10-13T03:47:34;10.65;;;6.63;;
48805;SDS011;34625;47.176;27.548;2022-10-13T03:50:01;9.32;;;6.25;;
48805;SDS011;34625;47.176;27.548;2022-10-13T03:52:29;10.50;;;5.65;;
48805;SDS011;34625;47.176;27.548;2022-10-13T03:54:55;11.60;;;5.07;;
48805;SDS011;34625;47.176;27.548;2022-10-13T03:57:21;7.68;;;4.90;;
48805;SDS011;34625;47.176;27.548;2022-10-13T03:59:47;6.35;;;5.15;;
48805;SDS011;34625;47.176;27.548;2022-10-13T04:02:13;7.10;;;4.47;;
48805;SDS011;34625;47.176;27.548;2022-10-13T04:04:39;7.80;;;4.60;;
48805;SDS011;34625;47.176;27.548;2022-10-13T04:07:05;9.65;;;5.10;;
48805;SDS011;34625;47.176;27.548;2022-10-13T04:09:32;10.40;;;5.20;;
48805;SDS011;34625;47.176;27.548;2022-10-13T04:11:58;6.72;;;4.72;;
48805;SDS011;34625;47.176;27.548;2022-10-13T04:14:24;7.10;;;4.57;;
48805;SDS011;34625;47.176;27.548;2022-10-13T04:16:55;7.15;;;5.30;;
48805;SDS011;34625;47.176;27.548;2022-10-13T04:19:21;9.68;;;5.25;;
48805;SDS011;34625;47.176;27.548;2022-10-13T04:21:47;8.57;;;5.75;;
48805;SDS011;34625;47.176;27.548;2022-10-13T04:24:13;6.78;;;5.25;;
48805;SDS011;34625;47.176;27.548;2022-10-13T04:26:41;10.02;;;5.60;;
48805;SDS011;34625;47.176;27.548;2022-10-13T04:29:09;9.80;;;5.53;;
48805;SDS011;34625;47.176;27.548;2022-10-13T04:31:37;9.05;;;5.97;;
48805;SDS011;34625;47.176;27.548;2022-10-13T04:34:04;8.38;;;5.18;;
48805;SDS011;34625;47.176;27.548;2022-10-13T04:36:31;8.43;;;5.65;;
48805;SDS011;34625;47.176;27.548;2022-10-13T04:38:58;8.98;;;5.10;;
48805;SDS011;34625;47.176;27.548;2022-10-13T04:41:24;11.05;;;5.75;;
48805;SDS011;34625;47.176;27.548;2022-10-13T04:43:51;6.47;;;5.57;;
48805;SDS011;34625;47.176;27.548;2022-10-13T04:46:21;9.48;;;6.15;;
48805;SDS011;34625;47.176;27.548;2022-10-13T04:48:49;7.45;;;5.57;;
48805;SDS011;34625;47.176;27.548;2022-10-13T04:51:19;8.70;;;5.97;;
48805;SDS011;34625;47.176;27.548;2022-10-13T04:53:47;9.82;;;5.63;;
48805;SDS011;34625;47.176;27.548;2022-10-13T04:56:15;8.05;;;5.13;;
48805;SDS011;34625;47.176;27.548;2022-10-13T04:58:43;7.55;;;4.93;;
48805;SDS011;34625;47.176;27.548;2022-10-13T05:01:11;8.30;;;5.10;;
48805;SDS011;34625;47.176;27.548;2022-10-13T05:03:42;8.30;;;5.50;;
48805;SDS011;34625;47.176;27.548;2022-10-13T05:06:15;6.30;;;4.88;;
48805;SDS011;34625;47.176;27.548;2022-10-13T05:08:46;9.13;;;5.55;;
48805;SDS011;34625;47.176;27.548;2022-10-13T05:11:14;7.40;;;5.28;;
48805;SDS011;34625;47.176;27.548;2022-10-13T05:13:41;7.68;;;5.45;;
48805;SDS011;34625;47.176;27.548;2022-10-13T05:16:08;7.55;;;5.03;;
48805;SDS011;34625;47.176;27.548;2022-10-13T05:18:35;8.88;;;5.07;;
48805;SDS011;34625;47.176;27.548;2022-10-13T05:21:05;7.78;;;5.68;;
48805;SDS011;34625;47.176;27.548;2022-10-13T05:23:36;6.50;;;4.68;;
48805;SDS011;34625;47.176;27.548;2022-10-13T05:26:03;6.00;;;4.32;;
48805;SDS011;34625;47.176;27.548;2022-10-13T05:28:34;9.43;;;4.68;;
48805;SDS011;34625;47.176;27.548;2022-10-13T05:31:22;8.68;;;4.15;;
48805;SDS011;34625;47.176;27.548;2022-10-13T05:33:48;6.82;;;4.00;;
48805;SDS011;34625;47.176;27.548;2022-10-13T05:36:21;8.43;;;4.18;;
48805;SDS011;34625;47.176;27.548;2022-10-13T05:38:54;7.35;;;3.97;;
48805;SDS011;34625;47.176;27.548;2022-10-13T05:41:23;7.70;;;4.53;;
48805;SDS011;34625;47.176;27.548;2022-10-13T05:43:55;9.32;;;4.40;;
48805;SDS011;34625;47.176;27.548;2022-10-13T05:46:24;9.07;;;4.63;;
48805;SDS011;34625;47.176;27.548;2022-10-13T05:48:51;6.60;;;4.68;;
48805;SDS011;34625;47.176;27.548;2022-10-13T05:51:24;6.43;;;4.60;;
48805;SDS011;34625;47.176;27.548;2022-10-13T05:56:47;6.75;;;4.25;;
48805;SDS011;34625;47.176;27.548;2022-10-13T05:59:19;6.32;;;4.15;;
48805;SDS011;34625;47.176;27.548;2022-10-13T06:01:47;5.47;;;3.75;;
48805;SDS011;34625;47.176;27.548;2022-10-13T06:04:15;8.68;;;4.20;;
48805;SDS011;34625;47.176;27.548;2022-10-13T06:06:45;7.32;;;4.90;;
48805;SDS011;34625;47.176;27.548;2022-10-13T06:09:12;7.43;;;4.95;;
48805;SDS011;34625;47.176;27.548;2022-10-13T06:11:38;5.88;;;4.22;;
48805;SDS011;34625;47.176;27.548;2022-10-13T06:14:04;6.28;;;4.38;;
48805;SDS011;34625;47.176;27.548;2022-10-13T06:16:30;5.75;;;4.38;;
48805;SDS011;34625;47.176;27.548;2022-10-13T06:18:58;5.75;;;4.10;;
48805;SDS011;34625;47.176;27.548;2022-10-13T06:21:24;5.25;;;4.47;;
48805;SDS011;34625;47.176;27.548;2022-10-13T06:23:50;5.70;;;4.10;;
48805;SDS011;34625;47.176;27.548;2022-10-13T06:26:18;5.82;;;4.10;;
48805;SDS011;34625;47.176;27.548;2022-10-13T06:28:44;6.03;;;4.35;;
48805;SDS011;34625;47.176;27.548;2022-10-13T06:31:10;8.93;;;4.88;;
48805;SDS011;34625;47.176;27.548;2022-10-13T06:33:36;7.72;;;4.68;;
48805;SDS011;34625;47.176;27.548;2022-10-13T06:36:03;6.00;;;3.95;;
48805;SDS011;34625;47.176;27.548;2022-10-13T06:38:30;8.38;;;4.43;;
48805;SDS011;34625;47.176;27.548;2022-10-13T06:41:00;5.38;;;4.18;;
48805;SDS011;34625;47.176;27.548;2022-10-13T06:43:30;7.68;;;4.40;;
48805;SDS011;34625;47.176;27.548;2022-10-13T06:46:00;6.88;;;4.20;;
48805;SDS011;34625;47.176;27.548;2022-10-13T06:48:27;6.18;;;4.30;;
48805;SDS011;34625;47.176;27.548;2022-10-13T06:50:53;5.68;;;3.97;;
48805;SDS011;34625;47.176;27.548;2022-10-13T06:53:19;6.95;;;4.38;;
48805;SDS011;34625;47.176;27.548;2022-10-13T06:55:45;6.85;;;3.88;;
48805;SDS011;34625;47.176;27.548;2022-10-13T06:58:11;7.43;;;4.13;;
48805;SDS011;34625;47.176;27.548;2022-10-13T07:00:39;11.60;;;4.72;;
48805;SDS011;34625;47.176;27.548;2022-10-13T07:03:05;5.95;;;4.18;;
48805;SDS011;34625;47.176;27.548;2022-10-13T07:05:31;5.65;;;4.55;;
48805;SDS011;34625;47.176;27.548;2022-10-13T07:07:57;4.53;;;4.00;;
48805;SDS011;34625;47.176;27.548;2022-10-13T07:10:23;7.50;;;3.60;;
48805;SDS011;34625;47.176;27.548;2022-10-13T07:12:50;6.20;;;4.78;;
48805;SDS011;34625;47.176;27.548;2022-10-13T07:15:16;7.40;;;4.38;;
48805;SDS011;34625;47.176;27.548;2022-10-13T07:17:41;5.88;;;4.18;;
48805;SDS011;34625;47.176;27.548;2022-10-13T07:20:08;6.82;;;3.67;;
48805;SDS011;34625;47.176;27.548;2022-10-13T07:22:34;6.22;;;4.30;;
48805;SDS011;34625;47.176;27.548;2022-10-13T07:25:00;4.85;;;3.60;;
48805;SDS011;34625;47.176;27.548;2022-10-13T07:27:26;6.95;;;3.70;;
48805;SDS011;34625;47.176;27.548;2022-10-13T07:29:53;6.78;;;3.92;;
48805;SDS011;34625;47.176;27.548;2022-10-13T07:32:19;4.63;;;3.17;;
48805;SDS011;34625;47.176;27.548;2022-10-13T07:34:45;8.05;;;4.03;;
48805;SDS011;34625;47.176;27.548;2022-10-13T07:37:11;6.47;;;3.58;;
48805;SDS011;34625;47.176;27.548;2022-10-13T07:39:37;5.78;;;3.55;;
48805;SDS011;34625;47.176;27.548;2022-10-13T07:42:03;5.10;;;3.42;;
48805;SDS011;34625;47.176;27.548;2022-10-13T07:44:29;7.80;;;3.67;;
48805;SDS011;34625;47.176;27.548;2022-10-13T07:46:55;4.28;;;3.20;;
48805;SDS011;34625;47.176;27.548;2022-10-13T07:49:21;5.93;;;4.35;;
48805;SDS011;34625;47.176;27.548;2022-10-13T07:51:47;7.38;;;4.57;;
48805;SDS011;34625;47.176;27.548;2022-10-13T07:54:17;6.47;;;4.80;;
48805;SDS011;34625;47.176;27.548;2022-10-13T07:56:43;8.27;;;4.68;;
48805;SDS011;34625;47.176;27.548;2022-10-13T07:59:11;7.35;;;3.95;;
48805;SDS011;34625;47.176;27.548;2022-10-13T08:01:37;7.32;;;5.45;;
48805;SDS011;34625;47.176;27.548;2022-10-13T08:04:03;7.90;;;4.57;;
48805;SDS011;34625;47.176;27.548;2022-10-13T08:06:29;6.43;;;4.80;;
48805;SDS011;34625;47.176;27.548;2022-10-13T08:08:56;6.45;;;4.53;;
48805;SDS011;34625;47.176;27.548;2022-10-13T08:11:24;3.92;;;3.50;;
48805;SDS011;34625;47.176;27.548;2022-10-13T08:13:51;7.15;;;4.20;;
48805;SDS011;34625;47.176;27.548;2022-10-13T08:16:21;8.65;;;4.13;;
48805;SDS011;34625;47.176;27.548;2022-10-13T08:18:47;6.78;;;4.45;;
48805;SDS011;34625;47.176;27.548;2022-10-13T08:21:14;8.00;;;5.13;;
48805;SDS011;34625;47.176;27.548;2022-10-13T08:23:42;9.15;;;5.60;;
48805;SDS011;34625;47.176;27.548;2022-10-13T08:26:15;11.32;;;6.88;;
48805;SDS011;34625;47.176;27.548;2022-10-13T08:28:44;10.20;;;7.45;;
48805;SDS011;34625;47.176;27.548;2022-10-13T08:31:10;13.52;;;7.55;;
48805;SDS011;34625;47.176;27.548;2022-10-13T08:33:36;10.50;;;6.47;;
48805;SDS011;34625;47.176;27.548;2022-10-13T08:36:04;10.05;;;6.57;;
48805;SDS011;34625;47.176;27.548;2022-10-13T08:38:30;7.53;;;5.57;;
48805;SDS011;34625;47.176;27.548;2022-10-13T08:40:56;8.68;;;6.13;;
48805;SDS011;34625;47.176;27.548;2022-10-13T08:43:22;8.30;;;5.63;;
48805;SDS011;34625;47.176;27.548;2022-10-13T08:45:51;7.75;;;5.72;;
48805;SDS011;34625;47.176;27.548;2022-10-13T08:48:24;10.73;;;5.55;;
48805;SDS011;34625;47.176;27.548;2022-10-13T08:50:58;9.77;;;6.30;;
48805;SDS011;34625;47.176;27.548;2022-10-13T08:55:57;11.38;;;6.60;;
48805;SDS011;34625;47.176;27.548;2022-10-13T09:03:27;7.10;;;4.65;;
48805;SDS011;34625;47.176;27.548;2022-10-13T09:06:05;6.22;;;5.22;;
48805;SDS011;34625;47.176;27.548;2022-10-13T09:08:55;5.95;;;5.18;;
48805;SDS011;34625;47.176;27.548;2022-10-13T09:11:21;7.20;;;4.85;;
48805;SDS011;34625;47.176;27.548;2022-10-13T09:13:52;8.40;;;4.88;;
48805;SDS011;34625;47.176;27.548;2022-10-13T09:16:29;7.38;;;5.57;;
48805;SDS011;34625;47.176;27.548;2022-10-13T09:19:24;8.00;;;5.90;;
48805;SDS011;34625;47.176;27.548;2022-10-13T09:21:54;7.60;;;4.78;;
48805;SDS011;34625;47.176;27.548;2022-10-13T09:24:22;11.43;;;5.63;;
48805;SDS011;34625;47.176;27.548;2022-10-13T09:27:01;10.07;;;4.97;;
48805;SDS011;34625;47.176;27.548;2022-10-13T09:29:42;7.80;;;6.20;;
48805;SDS011;34625;47.176;27.548;2022-10-13T09:34:37;7.30;;;4.88;;
48805;SDS011;34625;47.176;27.548;2022-10-13T09:37:04;6.20;;;4.88;;
48805;SDS011;34625;47.176;27.548;2022-10-13T09:39:40;9.40;;;5.25;;
48805;SDS011;34625;47.176;27.548;2022-10-13T09:42:18;7.60;;;4.93;;
48805;SDS011;34625;47.176;27.548;2022-10-13T09:44:44;8.60;;;4.43;;
48805;SDS011;34625;47.176;27.548;2022-10-13T09:47:18;7.30;;;4.20;;
48805;SDS011;34625;47.176;27.548;2022-10-13T09:49:46;7.55;;;4.07;;
48805;SDS011;34625;47.176;27.548;2022-10-13T09:52:28;6.60;;;4.70;;
48805;SDS011;34625;47.176;27.548;2022-10-13T09:54:56;9.20;;;5.28;;
48805;SDS011;34625;47.176;27.548;2022-10-13T10:02:50;10.95;;;5.40;;
48805;SDS011;34625;47.176;27.548;2022-10-13T10:05:26;6.50;;;5.35;;
48805;SDS011;34625;47.176;27.548;2022-10-13T10:08:01;10.45;;;6.20;;
48805;SDS011;34625;47.176;27.548;2022-10-13T10:10:38;9.60;;;5.35;;
48805;SDS011;34625;47.176;27.548;2022-10-13T10:13:08;6.68;;;4.72;;
48805;SDS011;34625;47.176;27.548;2022-10-13T10:15:59;7.78;;;5.35;;
48805;SDS011;34625;47.176;27.548;2022-10-13T10:18:26;8.38;;;5.22;;
48805;SDS011;34625;47.176;27.548;2022-10-13T10:21:01;7.00;;;4.95;;
48805;SDS011;34625;47.176;27.548;2022-10-13T10:29:45;7.57;;;4.97;;
48805;SDS011;34625;47.176;27.548;2022-10-13T10:35:23;7.50;;;4.50;;
48805;SDS011;34625;47.176;27.548;2022-10-13T10:37:56;7.25;;;3.97;;
48805;SDS011;34625;47.176;27.548;2022-10-13T10:40:54;10.65;;;3.47;;
48805;SDS011;34625;47.176;27.548;2022-10-13T10:43:34;5.13;;;3.70;;
48805;SDS011;34625;47.176;27.548;2022-10-13T10:46:14;7.88;;;4.30;;
48805;SDS011;34625;47.176;27.548;2022-10-13T10:48:48;6.78;;;4.07;;
48805;SDS011;34625;47.176;27.548;2022-10-13T10:51:18;5.72;;;4.15;;
48805;SDS011;34625;47.176;27.548;2022-10-13T10:56:33;6.95;;;4.03;;
48805;SDS011;34625;47.176;27.548;2022-10-13T11:02:09;9.45;;;5.47;;
48805;SDS011;34625;47.176;27.548;2022-10-13T11:04:41;8.15;;;4.22;;
48805;SDS011;34625;47.176;27.548;2022-10-13T11:07:10;6.03;;;4.75;;
48805;SDS011;34625;47.176;27.548;2022-10-13T11:17:35;5.20;;;4.20;;
48805;SDS011;34625;47.176;27.548;2022-10-13T11:25:43;8.55;;;5.75;;
48805;SDS011;34625;47.176;27.548;2022-10-13T11:33:48;8.57;;;5.15;;
48805;SDS011;34625;47.176;27.548;2022-10-13T11:36:30;6.93;;;4.93;;
48805;SDS011;34625;47.176;27.548;2022-10-13T11:44:30;6.18;;;4.55;;
48805;SDS011;34625;47.176;27.548;2022-10-13T11:47:08;9.27;;;5.20;;
48805;SDS011;34625;47.176;27.548;2022-10-13T11:58:21;9.93;;;5.15;;
48805;SDS011;34625;47.176;27.548;2022-10-13T12:03:19;9.52;;;5.15;;
48805;SDS011;34625;47.176;27.548;2022-10-13T12:05:48;7.85;;;4.50;;
48805;SDS011;34625;47.176;27.548;2022-10-13T12:08:16;8.95;;;4.57;;
48805;SDS011;34625;47.176;27.548;2022-10-13T12:10:44;6.32;;;4.70;;
48805;SDS011;34625;47.176;27.548;2022-10-13T12:13:18;5.80;;;4.18;;
48805;SDS011;34625;47.176;27.548;2022-10-13T12:15:47;6.78;;;4.25;;
48805;SDS011;34625;47.176;27.548;2022-10-13T12:18:24;7.97;;;4.80;;
48805;SDS011;34625;47.176;27.548;2022-10-13T12:21:07;5.32;;;4.22;;
48805;SDS011;34625;47.176;27.548;2022-10-13T12:23:35;6.43;;;3.78;;
48805;SDS011;34625;47.176;27.548;2022-10-13T12:26:01;5.22;;;3.33;;
48805;SDS011;34625;47.176;27.548;2022-10-13T12:31:26;5.20;;;3.78;;
48805;SDS011;34625;47.176;27.548;2022-10-13T12:33:55;6.07;;;3.47;;
48805;SDS011;34625;47.176;27.548;2022-10-13T12:36:26;14.27;;;7.47;;
48805;SDS011;34625;47.176;27.548;2022-10-13T12:38:57;8.00;;;4.75;;
48805;SDS011;34625;47.176;27.548;2022-10-13T12:41:29;6.43;;;4.65;;
48805;SDS011;34625;47.176;27.548;2022-10-13T12:43:59;8.55;;;4.28;;
48805;SDS011;34625;47.176;27.548;2022-10-13T12:46:42;10.30;;;4.65;;
48805;SDS011;34625;47.176;27.548;2022-10-13T12:49:26;7.25;;;4.65;;
48805;SDS011;34625;47.176;27.548;2022-10-13T12:54:32;8.73;;;4.85;;
48805;SDS011;34625;47.176;27.548;2022-10-13T12:57:11;8.50;;;5.22;;
48805;SDS011;34625;47.176;27.548;2022-10-13T12:59:42;9.55;;;4.95;;
48805;SDS011;34625;47.176;27.548;2022-10-13T13:02:19;10.18;;;5.07;;
48805;SDS011;34625;47.176;27.548;2022-10-13T13:04:51;11.02;;;4.97;;
48805;SDS011;34625;47.176;27.548;2022-10-13T13:07:36;12.68;;;6.57;;
48805;SDS011;34625;47.176;27.548;2022-10-13T13:12:43;13.02;;;5.20;;
48805;SDS011;34625;47.176;27.548;2022-10-13T13:15:32;10.20;;;5.15;;
48805;SDS011;34625;47.176;27.548;2022-10-13T13:20:52;8.27;;;4.65;;
48805;SDS011;34625;47.176;27.548;2022-10-13T13:23:18;10.82;;;5.88;;
48805;SDS011;34625;47.176;27.548;2022-10-13T13:25:46;15.98;;;5.80;;
48805;SDS011;34625;47.176;27.548;2022-10-13T13:28:13;14.25;;;7.25;;
48805;SDS011;34625;47.176;27.548;2022-10-13T13:30:40;27.05;;;6.85;;
48805;SDS011;34625;47.176;27.548;2022-10-13T13:33:07;9.70;;;5.95;;
48805;SDS011;34625;47.176;27.548;2022-10-13T13:35:33;14.50;;;5.05;;
48805;SDS011;34625;47.176;27.548;2022-10-13T13:38:01;16.20;;;7.03;;
48805;SDS011;34625;47.176;27.548;2022-10-13T13:40:28;18.67;;;7.32;;
48805;SDS011;34625;47.176;27.548;2022-10-13T13:42:55;7.97;;;5.60;;
48805;SDS011;34625;47.176;27.548;2022-10-13T13:45:26;8.02;;;4.35;;
48805;SDS011;34625;47.176;27.548;2022-10-13T13:47:52;11.20;;;4.55;;
48805;SDS011;34625;47.176;27.548;2022-10-13T13:52:55;7.35;;;4.03;;
48805;SDS011;34625;47.176;27.548;2022-10-13T13:55:21;8.20;;;4.95;;
48805;SDS011;34625;47.176;27.548;2022-10-13T13:57:47;8.80;;;4.57;;
48805;SDS011;34625;47.176;27.548;2022-10-13T14:00:14;12.85;;;4.60;;
48805;SDS011;34625;47.176;27.548;2022-10-13T14:02:41;10.60;;;4.55;;
48805;SDS011;34625;47.176;27.548;2022-10-13T14:05:09;7.32;;;4.18;;
48805;SDS011;34625;47.176;27.548;2022-10-13T14:07:36;9.25;;;3.67;;
48805;SDS011;34625;47.176;27.548;2022-10-13T14:10:03;9.82;;;4.88;;
48805;SDS011;34625;47.176;27.548;2022-10-13T14:12:30;8.48;;;4.40;;
48805;SDS011;34625;47.176;27.548;2022-10-13T14:14:57;6.30;;;4.13;;
48805;SDS011;34625;47.176;27.548;2022-10-13T14:17:27;8.10;;;4.35;;
48805;SDS011;34625;47.176;27.548;2022-10-13T14:19:55;7.07;;;3.88;;
48805;SDS011;34625;47.176;27.548;2022-10-13T14:22:21;6.22;;;3.83;;
48805;SDS011;34625;47.176;27.548;2022-10-13T14:24:47;7.53;;;3.97;;
48805;SDS011;34625;47.176;27.548;2022-10-13T14:27:13;8.27;;;4.75;;
48805;SDS011;34625;47.176;27.548;2022-10-13T14:29:39;8.45;;;4.32;;
48805;SDS011;34625;47.176;27.548;2022-10-13T14:32:05;7.78;;;4.50;;
48805;SDS011;34625;47.176;27.548;2022-10-13T14:34:31;5.13;;;4.22;;
48805;SDS011;34625;47.176;27.548;2022-10-13T14:36:58;6.13;;;4.82;;
48805;SDS011;34625;47.176;27.548;2022-10-13T14:39:24;8.82;;;4.53;;
48805;SDS011;34625;47.176;27.548;2022-10-13T14:41:50;6.00;;;4.20;;
48805;SDS011;34625;47.176;27.548;2022-10-13T14:44:16;7.53;;;4.18;;
48805;SDS011;34625;47.176;27.548;2022-10-13T14:46:43;4.35;;;2.88;;
48805;SDS011;34625;47.176;27.548;2022-10-13T14:49:10;15.85;;;5.78;;
48805;SDS011;34625;47.176;27.548;2022-10-13T14:51:40;7.65;;;4.40;;
48805;SDS011;34625;47.176;27.548;2022-10-13T14:54:07;4.68;;;4.00;;
48805;SDS011;34625;47.176;27.548;2022-10-13T14:56:33;8.32;;;4.78;;
48805;SDS011;34625;47.176;27.548;2022-10-13T14:59:00;7.82;;;4.60;;
48805;SDS011;34625;47.176;27.548;2022-10-13T15:01:35;8.27;;;5.40;;
48805;SDS011;34625;47.176;27.548;2022-10-13T15:04:02;9.70;;;5.90;;
48805;SDS011;34625;47.176;27.548;2022-10-13T15:06:29;13.80;;;5.07;;
48805;SDS011;34625;47.176;27.548;2022-10-13T15:08:56;7.15;;;3.95;;
48805;SDS011;34625;47.176;27.548;2022-10-13T15:11:22;6.85;;;4.45;;
48805;SDS011;34625;47.176;27.548;2022-10-13T15:13:50;7.40;;;5.10;;
48805;SDS011;34625;47.176;27.548;2022-10-13T15:16:17;8.45;;;4.57;;
48805;SDS011;34625;47.176;27.548;2022-10-13T15:18:44;11.98;;;5.10;;
48805;SDS011;34625;47.176;27.548;2022-10-13T15:21:11;25.42;;;10.32;;
48805;SDS011;34625;47.176;27.548;2022-10-13T15:23:37;13.15;;;6.85;;
48805;SDS011;34625;47.176;27.548;2022-10-13T15:26:04;13.43;;;7.80;;
48805;SDS011;34625;47.176;27.548;2022-10-13T15:28:35;14.18;;;6.25;;
48805;SDS011;34625;47.176;27.548;2022-10-13T15:31:08;50.42;;;25.52;;
48805;SDS011;34625;47.176;27.548;2022-10-13T15:33:35;16.08;;;9.32;;
48805;SDS011;34625;47.176;27.548;2022-10-13T15:36:01;18.42;;;9.30;;
48805;SDS011;34625;47.176;27.548;2022-10-13T15:38:27;20.05;;;9.13;;
48805;SDS011;34625;47.176;27.548;2022-10-13T15:41:00;14.55;;;6.57;;
48805;SDS011;34625;47.176;27.548;2022-10-13T15:43:27;13.93;;;7.43;;
48805;SDS011;34625;47.176;27.548;2022-10-13T15:45:55;11.50;;;5.70;;
48805;SDS011;34625;47.176;27.548;2022-10-13T15:48:24;13.23;;;6.35;;
48805;SDS011;34625;47.176;27.548;2022-10-13T15:50:50;11.68;;;6.60;;
48805;SDS011;34625;47.176;27.548;2022-10-13T15:53:16;11.18;;;6.53;;
48805;SDS011;34625;47.176;27.548;2022-10-13T15:55:44;13.02;;;6.72;;
48805;SDS011;34625;47.176;27.548;2022-10-13T15:58:11;15.70;;;7.88;;
48805;SDS011;34625;47.176;27.548;2022-10-13T16:00:38;7.88;;;6.35;;
48805;SDS011;34625;47.176;27.548;2022-10-13T16:03:04;14.73;;;7.15;;
48805;SDS011;34625;47.176;27.548;2022-10-13T16:05:30;12.38;;;6.82;;
48805;SDS011;34625;47.176;27.548;2022-10-13T16:07:57;9.65;;;5.57;;
48805;SDS011;34625;47.176;27.548;2022-10-13T16:10:23;11.27;;;5.78;;
48805;SDS011;34625;47.176;27.548;2022-10-13T16:12:49;8.52;;;5.85;;
48805;SDS011;34625;47.176;27.548;2022-10-13T16:15:15;10.55;;;6.10;;
48805;SDS011;34625;47.176;27.548;2022-10-13T16:17:42;7.03;;;5.45;;
48805;SDS011;34625;47.176;27.548;2022-10-13T16:20:10;9.25;;;5.68;;
48805;SDS011;34625;47.176;27.548;2022-10-13T16:22:36;7.85;;;6.32;;
48805;SDS011;34625;47.176;27.548;2022-10-13T16:25:04;8.60;;;5.88;;
48805;SDS011;34625;47.176;27.548;2022-10-13T16:27:31;13.05;;;6.07;;
48805;SDS011;34625;47.176;27.548;2022-10-13T16:29:57;7.63;;;4.72;;
48805;SDS011;34625;47.176;27.548;2022-10-13T16:32:23;14.85;;;5.45;;